Atlantic Chip Logo MyLaps Official Partner
Tuesday, May 31, 2016
Registration Management Login

Results for Triathlon by the Sea
Sprint Triathlon
July 29th, 2007

 
                         PEI Triathlon by the Sea
    Stanhope Beach, PEI July 29th, 2007  9:00 A.M.  Weather: Sunny 25C
                        Race Director:  Tyler Read
              Timing & Results by Atlantic Chip Event Timing
                                     
                             Sprint_Triathlon
 
                           Age Group Competition
 -------Final Results-------------------------------------------------------     750 Meter              20.2 Km             4.78 Km
                                                      Div                    ------SWIM------      -----BIKE/T1-----    -----RUN/T2-----
  Pos     Time    Name                  City          Total Div     No.      Ovr  Time  /100m      Ovr Time    Km/Hr    Ovr  Time   /km
 -------- ------- --------------------- ------------  ----- ----    ----     ----------------      -----------------    ----------------
       1 1:10:22   Doug Cochrane         Dieppe       1/4   M5059   681       6   12:21  1:39       2   35:38  34.0      3   22:24  4:09 
       2 1:13:06   Matthew Gallant       charlottet   1/5   M2029   627      22   14:29  1:56       5   37:01  32.7      2   21:36  4:00 
       3 1:14:35   Sean Fleming          Charlottet   2/5   M2029   701      26   14:49  1:59       1   35:06  34.5      6   24:41  4:35 
       4 1:17:09   Samuel Mason          Charlottet   1/5   M0119   696      34   16:28  2:12      11   39:51  30.4      1   20:51  3:52 
       5 1:17:25   Ryan Bradley          Stratford    1/10  M3039   616       9   13:00  1:44       6   38:35  31.4     10   25:50  4:48 
       6 1:17:26   Derek Bondt           Bonshaw      3/5   M2029   645       5   12:18  1:39       7   38:41  31.3     11   26:28  4:54 
       7 1:17:58   Ryan DesRoches        Charlottet   4/5   M2029   605      23   14:32  1:57       3   36:07  33.6     15   27:20  5:04 
       8 1:19:19   sean macdougall       vancouver    2/5   M0119   622      10   13:08  1:46      15   42:02  28.8      5   24:10  4:29 
       9 1:20:34   Murray Savoy          Amherst      2/10  M3039   620      17   14:08  1:53       4   36:48  32.9     27   29:39  5:30 
      10 1:21:45   wayne macdougall      vancouver    2/4   M5059   621      18   14:11  1:54      14   41:06  29.5     12   26:29  4:55 
      11 1:22:03   Andrew Ing            Charlottet   3/10  M3039   601       3   11:51  1:35      20   42:27  28.6     18   27:46  5:09 
      12 1:22:33   John Simson           Rothesay     1/1   M6099   657       7   12:29  1:40      16   42:10  28.7     19   27:55  5:11 
      13 1:22:38   Jenna Gallant         Winsloe      1/5   F2029   610      30   16:00  2:08      21   42:30  28.5      4   24:09  4:29 
      14 1:22:55   Chris Curry           Summerside   4/10  M3039   665      32   16:23  2:11      13   41:05  29.5      8   25:28  4:43 
      15 1:23:28   Duncan Sturz          Charlottet   3/5   M0119   651      37   16:32  2:13      10   39:18  30.8     16   27:40  5:08 
      16 1:23:33   Adam Balderston       Stratford    5/10  M3039   614      36   16:31  2:13       8   38:48  31.2     22   28:16  5:14 
      17 1:24:01   Mark Bowlan           Stratford    6/10  M3039   629      38   16:48  2:15       9   39:16  30.9     20   27:57  5:11 
      18 1:24:43   Kent Sheen            Stanley Br   1/5   M4049   672      24   14:33  1:57      12   40:52  29.7     26   29:20  5:26 
      19 1:25:43   Mike Stevenson        Winsloe      7/10  M3039   644       2   11:35  1:33      22   43:11  28.1     30   30:58  5:44 
      20 1:26:26   Rob Trainor           Stratford    2/5   M4049   700      40   18:32  2:29      17   42:12  28.7      9   25:43  4:46 
      21 1:26:45   Madeleine Crowell     Charlottet   1/3   F0119   648       8   12:44  1:42      31   45:33  26.6     23   28:29  5:17 
      22 1:26:45   Tom Crowell           Charlottet   3/5   M4049   649      15   13:38  1:49      28   44:37  27.2     24   28:31  5:17 
      23 1:27:01   Johannah profit       charlottet   2/5   F2029   654       1   11:06  1:29      34   46:50  25.9     25   29:06  5:24 
      24 1:28:05   Nathan Archibald      Kensington   8/10  M3039   641      19   14:13  1:54      18   42:21  28.6     33   31:32  5:51 
      25 1:28:22   Kara Sabean-Archibald Kensington   1/3   F3039   642      21   14:22  1:55      23   43:23  27.9     28   30:38  5:41 
      26 1:28:58   David Pinead          Summerside   3/4   M5059   686      39   18:21  2:27      19   42:24  28.6     21   28:14  5:14 
      27 1:29:56   Andrea Ouellette      Halifax      2/3   F3039   676      27   15:05  2:01      35   47:38  25.4     14   27:14  5:03 
      28 1:30:36   Rileigh Rush          Winsloe      2/3   F0119   647      14   13:36  1:49      27   44:33  27.2     35   32:28  6:01 
      29 1:31:13   Brian Hawrylak        Summerside   9/10  M3039   638      25   14:34  1:57      30   45:15  26.8     32   31:24  5:49 
      30 1:31:46   Matthew Hogan         Cornwall     5/5   M2029   658      42   19:12  2:34      32   46:05  26.3     13   26:31  4:55 
      31 1:31:53   Jaco Olivier          Moncton     10/10  M3039   664      33   16:26  2:12      26   44:10  27.4     31   31:18  5:48 
      32 1:32:03   Sandra Carson-McGuire Summerside   1/4   F4049   667      31   16:20  2:11      39   50:29  24.0      7   25:15  4:41 
      33 1:32:45   Ryan Mills            Charlottet   4/5   M0119   650      16   13:40  1:50      29   44:48  27.1     37   34:18  6:21 
      34 1:33:16   Kim Horrelt           Stratford    2/4   F4049   699      41   18:52  2:31      24   43:29  27.9     29   30:56  5:44 
      35 1:35:13   Rachael Hankinson     Charlottet   3/5   F2029   609      20   14:14  1:54      38   49:22  24.6     34   31:38  5:52 
      36 1:38:30   Stephanie Pierce      Saint John   3/3   F3039   663      29   15:46  2:07      33   46:50  25.9     38   35:56  6:40 
      37 1:39:34   James Profit          charlottet   5/5   M0119   652      12   13:19  1:47      41   52:16  23.2     36   34:01  6:18 
      38 1:40:08   Dave Beaton           Charlottet   4/5   M4049   698      45   24:34  3:17      36   47:51  25.3     17   27:44  5:09 
      39 1:43:29   Murray Ritch          Dartmouth    4/4   M5059   603      35   16:30  2:12      37   49:00  24.7     39   38:00  7:03 
      40 1:46:27   Mila profit           charlottet   3/3   F0119   653       4   12:17  1:39      40   50:37  23.9     43   43:35  8:05 
      41 1:50:11   Nichole Miles         Charlottet   4/5   F2029   661      13   13:34  1:49      43   55:10  22.0     42   41:28  7:41 
      42 1:50:12   Randy Miles           Charlottet   5/5   M4049   673      11   13:14  1:46      44   55:36  21.8     41   41:22  7:40 
      43 1:51:25   Shirley Wright        Calgary      3/4   F4049   608      44   20:16  2:43      42   52:27  23.1     40   38:43  7:11 
      44           Alison Jenkins        Bonshaw      5/5   F2029   671      28   15:22  2:03      25   43:47  27.7                      
      45           Rebecca Doiron        Charlottet   4/4   F4049   693      43   19:33  2:37                                            

Results originally posted July 29th, 2007 at 8:58:41 pm
Atlantic Chip Sport Timing
32 Forest Road
Dartmouth, NS
B3A 2M3
Email: Troy Musseau
Copyright © 2016 Atlantic Chip Sport Timing
ChampionChip® and MYLAPS® name and logo copyright © MYLAPS
Current server time is 11:05:30 AM Atlantic Time
Page generated in 0.015 seconds